Thunder radar more information blitzortung!


Löydät sääaseman tiedot myös:

European Weather Network

Finland Weather Exchange

Weather Underground

AWEKAS



Weather Underground säähistoriasivu

Päivittäin yhteenveto Tammikuu 29, 2017 Yksiköt:  Molemmat    Englantilaiset   Metriset
« Edellinen Päivä
Seuraava Päivä »
Päivittäin Viikoittain Kuukausittain Vuosittain Mukautettu
  Korkea: Matala: Keskiarvo:
Lämpötila: TemperatureC °F /  -17.8 °C -0.6 °F /  -18.1 °C 0.2 °F /  -17.7 °C
Kastepiste: DewpointC °F /  -17.8 °C -2.3 °F /  -19.1 °C -1.2 °F /  -18.4 °C
Kosteus: Humidity % 82 % 89 %
Tuulen nopeus: WindSpeedKMH mph /  0 km/h - 1.7 mph /  2.7 km/h
Tuulenpuuska: WindSpeedGustKMH mph /  0 km/h - -
Tuuli:- - SSW
Ilmanpaine: PressurehPa in /  0 hPa 1006.7 in /  34086.9 hPa -
Sade: 0.0 in /  0 mm    
Historical Graphs
 
 
Taulukkotiedot Tammikuu 29, 2017
Aika Lämpötila Kastepiste Ilmanpaine Tuuli Tuulen nopeus Tuulenpuuska Kosteus Sademäärä (tunneittain)
TemperatureC °F /  -17.8 °C DewpointC °F /  -17.8 °C PressurehPa in /  0 hPa Calm     Humidity % HourlyPrecipMM in /  0 mm
00:00 -0.3 °F /  -17.9 °C -0.8 °F /  -18.2 °C 1017.8 in /  34462.7 hPa Calm     96 % 0.0 in /  0 mm
00:15 -0.3 °F /  -17.9 °C -0.8 °F /  -18.2 °C 1017.8 in /  34462.7 hPa Calm     96 % 0.0 in /  0 mm
00:30 -0.3 °F /  -17.9 °C -0.8 °F /  -18.2 °C 1017.5 in /  34452.6 hPa Calm     96 % 0.0 in /  0 mm
00:45 -0.3 °F /  -17.9 °C -0.8 °F /  -18.2 °C 1017.5 in /  34452.6 hPa Calm     96 % 0.0 in /  0 mm
01:00 -0.2 °F /  -17.9 °C -0.8 °F /  -18.2 °C 1017.5 in /  34452.6 hPa Calm     96 % 0.0 in /  0 mm
01:15 -0.2 °F /  -17.9 °C -0.7 °F /  -18.2 °C 1017.2 in /  34442.4 hPa Calm     96 % 0.0 in /  0 mm
01:30 -0.2 °F /  -17.9 °C -0.7 °F /  -18.2 °C 1017.2 in /  34442.4 hPa Calm     96 % 0.0 in /  0 mm
01:45 -0.1 °F /  -17.8 °C -0.7 °F /  -18.2 °C 1017.2 in /  34442.4 hPa Calm     96 % 0.0 in /  0 mm
02:00 -0.1 °F /  -17.8 °C -0.7 °F /  -18.2 °C 1016.8 in /  34428.8 hPa Calm     96 % 0.0 in /  0 mm
02:15 -0.2 °F /  -17.9 °C -0.9 °F /  -18.3 °C 1016.8 in /  34428.8 hPa Calm     95 % 0.0 in /  0 mm
02:30 -0.2 °F /  -17.9 °C -0.7 °F /  -18.2 °C 1016.5 in /  34418.7 hPa Calm     96 % 0.0 in /  0 mm
02:45 -0.1 °F /  -17.8 °C -0.8 °F /  -18.2 °C 1016.5 in /  34418.7 hPa Calm     95 % 0.0 in /  0 mm
03:00 -0.1 °F /  -17.8 °C -0.8 °F /  -18.2 °C 1016.5 in /  34418.7 hPa Calm     95 % 0.0 in /  0 mm
03:15 -0.1 °F /  -17.8 °C -0.8 °F /  -18.2 °C 1016.5 in /  34418.7 hPa Calm     95 % 0.0 in /  0 mm
03:30 -0.1 °F /  -17.8 °C -0.8 °F /  -18.2 °C 1016.5 in /  34418.7 hPa Calm     95 % 0.0 in /  0 mm
03:45 -0.2 °F /  -17.9 °C -0.9 °F /  -18.3 °C 1016.5 in /  34418.7 hPa Calm     95 % 0.0 in /  0 mm
04:00 -0.2 °F /  -17.9 °C -0.9 °F /  -18.3 °C 1016.5 in /  34418.7 hPa Calm     95 % 0.0 in /  0 mm
04:15 -0.3 °F /  -17.9 °C -1.0 °F /  -18.3 °C 1016.1 in /  34405.1 hPa Calm     95 % 0.0 in /  0 mm
04:30 -0.3 °F /  -17.9 °C -1.1 °F /  -18.4 °C 1016.1 in /  34405.1 hPa Calm     94 % 0.0 in /  0 mm
04:45 -0.3 °F /  -17.9 °C -1.1 °F /  -18.4 °C 1016.1 in /  34405.1 hPa Calm     94 % 0.0 in /  0 mm
05:00 -0.2 °F /  -17.9 °C -1.1 °F /  -18.4 °C 1015.8 in /  34395 hPa Calm     94 % 0.0 in /  0 mm
05:15 -0.2 °F /  -17.9 °C -1.1 °F /  -18.4 °C 1015.8 in /  34395 hPa Calm     94 % 0.0 in /  0 mm
05:30 -0.2 °F /  -17.9 °C -1.1 °F /  -18.4 °C 1015.8 in /  34395 hPa Calm     94 % 0.0 in /  0 mm
05:45 -0.3 °F /  -17.9 °C -1.1 °F /  -18.4 °C 1015.8 in /  34395 hPa Calm     94 % 0.0 in /  0 mm
06:00 -0.3 °F /  -17.9 °C -1.3 °F /  -18.5 °C 1015.8 in /  34395 hPa Calm     93 % 0.0 in /  0 mm
06:15 -0.3 °F /  -17.9 °C -1.3 °F /  -18.5 °C 1015.8 in /  34395 hPa Calm     93 % 0.0 in /  0 mm
06:30 -0.3 °F /  -17.9 °C -1.3 °F /  -18.5 °C 1015.8 in /  34395 hPa Calm     93 % 0.0 in /  0 mm
06:45 -0.3 °F /  -17.9 °C -1.3 °F /  -18.5 °C 1015.8 in /  34395 hPa Calm     93 % 0.0 in /  0 mm
07:00 -0.3 °F /  -17.9 °C -1.3 °F /  -18.5 °C 1015.8 in /  34395 hPa Calm     93 % 0.0 in /  0 mm
07:15 -0.3 °F /  -17.9 °C -1.3 °F /  -18.5 °C 1015.8 in /  34395 hPa Calm     93 % 0.0 in /  0 mm
07:30 -0.4 °F /  -18 °C -1.4 °F /  -18.6 °C 1015.5 in /  34384.8 hPa Calm     93 % 0.0 in /  0 mm
07:45 -0.4 °F /  -18 °C -1.5 °F /  -18.6 °C 1015.5 in /  34384.8 hPa Calm     92 % 0.0 in /  0 mm
08:00 -0.3 °F /  -17.9 °C -1.5 °F /  -18.6 °C 1015.5 in /  34384.8 hPa Calm     92 % 0.0 in /  0 mm
08:15 -0.4 °F /  -18 °C -1.5 °F /  -18.6 °C 1015.5 in /  34384.8 hPa Calm     92 % 0.0 in /  0 mm
08:30 -0.4 °F /  -18 °C -1.6 °F /  -18.7 °C 1015.5 in /  34384.8 hPa Calm     92 % 0.0 in /  0 mm
08:45 -0.5 °F /  -18.1 °C -1.6 °F /  -18.7 °C 1015.1 in /  34371.3 hPa Calm     92 % 0.0 in /  0 mm
09:00 -0.6 °F /  -18.1 °C -1.8 °F /  -18.8 °C 1015.1 in /  34371.3 hPa Calm     91 % 0.0 in /  0 mm
09:15 -0.6 °F /  -18.1 °C -1.9 °F /  -18.8 °C 1015.1 in /  34371.3 hPa Calm     91 % 0.0 in /  0 mm
09:30 -0.6 °F /  -18.1 °C -1.8 °F /  -18.8 °C 1015.1 in /  34371.3 hPa Calm     91 % 0.0 in /  0 mm
09:45 -0.6 °F /  -18.1 °C -1.8 °F /  -18.8 °C 1015.1 in /  34371.3 hPa Calm     91 % 0.0 in /  0 mm
10:00 -0.6 °F /  -18.1 °C -1.8 °F /  -18.8 °C 1015.1 in /  34371.3 hPa Calm     91 % 0.0 in /  0 mm
10:15 -0.5 °F /  -18.1 °C -1.8 °F /  -18.8 °C 1015.1 in /  34371.3 hPa Calm     91 % 0.0 in /  0 mm
10:30 -0.4 °F /  -18 °C -1.7 °F /  -18.7 °C 1014.8 in /  34361.1 hPa Calm     91 % 0.0 in /  0 mm
10:45 -0.4 °F /  -18 °C -1.6 °F /  -18.7 °C 1014.8 in /  34361.1 hPa Calm     92 % 0.0 in /  0 mm
11:00 -0.4 °F /  -18 °C -1.5 °F /  -18.6 °C 1014.8 in /  34361.1 hPa Calm     92 % 0.0 in /  0 mm
11:15 -0.3 °F /  -17.9 °C -1.5 °F /  -18.6 °C 1014.8 in /  34361.1 hPa Calm     92 % 0.0 in /  0 mm
11:30 -0.3 °F /  -17.9 °C -1.3 °F /  -18.5 °C 1014.4 in /  34347.6 hPa Calm     93 % 0.0 in /  0 mm
11:45 -0.2 °F /  -17.9 °C -1.1 °F /  -18.4 °C 1014.4 in /  34347.6 hPa Calm     94 % 0.0 in /  0 mm
12:00 -0.2 °F /  -17.9 °C -1.1 °F /  -18.4 °C 1014.1 in /  34337.4 hPa Calm     94 % 0.0 in /  0 mm
12:15 -0.2 °F /  -17.9 °C -1.1 °F /  -18.4 °C 1014.1 in /  34337.4 hPa Calm     94 % 0.0 in /  0 mm
12:30 -0.2 °F /  -17.9 °C -1.0 °F /  -18.3 °C 1014.1 in /  34337.4 hPa Calm     94 % 0.0 in /  0 mm
12:45 -0.2 °F /  -17.9 °C -1.2 °F /  -18.4 °C 1013.8 in /  34327.3 hPa Calm     93 % 0.0 in /  0 mm
13:00 -0.2 °F /  -17.9 °C -1.3 °F /  -18.5 °C 1013.8 in /  34327.3 hPa Calm     92 % 0.0 in /  0 mm
13:15 -0.1 °F /  -17.8 °C -1.3 °F /  -18.5 °C 1013.4 in /  34313.7 hPa Calm     91 % 0.0 in /  0 mm
13:30 0.1 °F /  -17.7 °C -1.4 °F /  -18.6 °C 1013.1 in /  34303.6 hPa Calm     90 % 0.0 in /  0 mm
13:45 0.2 °F /  -17.7 °C -1.4 °F /  -18.6 °C 1013.1 in /  34303.6 hPa Calm     89 % 0.0 in /  0 mm
14:00 0.3 °F /  -17.6 °C -1.4 °F /  -18.6 °C 1012.8 in /  34293.4 hPa Calm     88 % 0.0 in /  0 mm
14:15 0.4 °F /  -17.6 °C -1.3 °F /  -18.5 °C 1012.8 in /  34293.4 hPa Calm     88 % 0.0 in /  0 mm
14:30 0.5 °F /  -17.5 °C -1.4 °F /  -18.6 °C 1012.4 in /  34279.9 hPa Calm     87 % 0.0 in /  0 mm
14:45 0.6 °F /  -17.4 °C -1.3 °F /  -18.5 °C 1012.1 in /  34269.7 hPa Calm     87 % 0.0 in /  0 mm
15:00 0.7 °F /  -17.4 °C -1.4 °F /  -18.6 °C 1011.7 in /  34256.2 hPa Calm     86 % 0.0 in /  0 mm
15:15 0.8 °F /  -17.3 °C -1.1 °F /  -18.4 °C 1011.7 in /  34256.2 hPa Calm     87 % 0.0 in /  0 mm
15:30 0.8 °F /  -17.3 °C -1.1 °F /  -18.4 °C 1011.7 in /  34256.2 hPa Calm     87 % 0.0 in /  0 mm
15:45 0.9 °F /  -17.3 °C -1.0 °F /  -18.3 °C 1011.4 in /  34246 hPa Calm     87 % 0.0 in /  0 mm
16:00 0.9 °F /  -17.3 °C -1.0 °F /  -18.3 °C 1011.1 in /  34235.8 hPa Calm     87 % 0.0 in /  0 mm
16:15 0.9 °F /  -17.3 °C -0.8 °F /  -18.2 °C 1011.1 in /  34235.8 hPa Calm     88 % 0.0 in /  0 mm
16:30 1.0 °F /  -17.2 °C -0.8 °F /  -18.2 °C 1011.1 in /  34235.8 hPa Calm     88 % 0.0 in /  0 mm
16:45 1.1 °F /  -17.2 °C -1.0 °F /  -18.3 °C 1010.7 in /  34222.3 hPa Calm     86 % 0.0 in /  0 mm
17:00 1.1 °F /  -17.2 °C -1.1 °F /  -18.4 °C 1010.7 in /  34222.3 hPa Calm     85 % 0.0 in /  0 mm
17:15 1.2 °F /  -17.1 °C -1.4 °F /  -18.6 °C 1010.4 in /  34212.1 hPa Calm     83 % 0.0 in /  0 mm
17:30 1.2 °F /  -17.1 °C -1.4 °F /  -18.6 °C 1010.0 in /  34198.6 hPa Calm     83 % 0.0 in /  0 mm
17:45 1.1 °F /  -17.2 °C -1.1 °F /  -18.4 °C 1010.0 in /  34198.6 hPa Calm     85 % 0.0 in /  0 mm
18:00 1.1 °F /  -17.2 °C -1.0 °F /  -18.3 °C 1010.0 in /  34198.6 hPa Calm     86 % 0.0 in /  0 mm
18:15 1.0 °F /  -17.2 °C -0.9 °F /  -18.3 °C 1009.7 in /  34188.4 hPa Calm     87 % 0.0 in /  0 mm
18:30 0.9 °F /  -17.3 °C -1.0 °F /  -18.3 °C 1009.7 in /  34188.4 hPa Calm     87 % 0.0 in /  0 mm
18:45 1.0 °F /  -17.2 °C -1.1 °F /  -18.4 °C 1009.4 in /  34178.3 hPa Calm     86 % 0.0 in /  0 mm
19:00 1.1 °F /  -17.2 °C -1.2 °F /  -18.4 °C 1009.0 in /  34164.7 hPa Calm     85 % 0.0 in /  0 mm
19:15 1.1 °F /  -17.2 °C -1.2 °F /  -18.4 °C 1009.0 in /  34164.7 hPa Calm     85 % 0.0 in /  0 mm
19:30 1.1 °F /  -17.2 °C -1.0 °F /  -18.3 °C 1008.7 in /  34154.6 hPa Calm     86 % 0.0 in /  0 mm
19:45 0.9 °F /  -17.3 °C -0.8 °F /  -18.2 °C 1008.4 in /  34144.4 hPa Calm     88 % 0.0 in /  0 mm
20:00 0.9 °F /  -17.3 °C -0.8 °F /  -18.2 °C 1008.0 in /  34130.9 hPa Calm     88 % 0.0 in /  0 mm
20:15 1.0 °F /  -17.2 °C -0.8 °F /  -18.2 °C 1008.0 in /  34130.9 hPa Calm     88 % 0.0 in /  0 mm
20:30 1.1 °F /  -17.2 °C -0.8 °F /  -18.2 °C 1007.7 in /  34120.7 hPa Calm     87 % 0.0 in /  0 mm
20:45 1.3 °F /  -17.1 °C -1.1 °F /  -18.4 °C 1007.7 in /  34120.7 hPa Calm     84 % 0.0 in /  0 mm
21:00 1.4 °F /  -17 °C -1.2 °F /  -18.4 °C 1007.3 in /  34107.2 hPa SSW 3.2 mph /  5.1 km/h 33.8 mph /  54.4 km/h 83 % 0.0 in /  0 mm
21:15 1.3 °F /  -17.1 °C -1.2 °F /  -18.4 °C 1007.3 in /  34107.2 hPa SSW 16.1 mph /  25.9 km/h 32.2 mph /  51.8 km/h 83 % 0.0 in /  0 mm
21:30 1.3 °F /  -17.1 °C -1.1 °F /  -18.4 °C 1007.0 in /  34097 hPa SSW 14.5 mph /  23.3 km/h 33.8 mph /  54.4 km/h 84 % 0.0 in /  0 mm
21:45 1.2 °F /  -17.1 °C -1.0 °F /  -18.3 °C 1007.0 in /  34097 hPa SSW 14.5 mph /  23.3 km/h 32.2 mph /  51.8 km/h 85 % 0.0 in /  0 mm
22:00 1.3 °F /  -17.1 °C -1.0 °F /  -18.3 °C 1006.7 in /  34086.9 hPa SSW 16.1 mph /  25.9 km/h 37.0 mph /  59.5 km/h 85 % 0.0 in /  0 mm
22:15 1.2 °F /  -17.1 °C -1.0 °F /  -18.3 °C 1006.7 in /  34086.9 hPa SSW 14.5 mph /  23.3 km/h 33.8 mph /  54.4 km/h 85 % 0.0 in /  0 mm
22:30 1.2 °F /  -17.1 °C -0.9 °F /  -18.3 °C 1006.7 in /  34086.9 hPa SSW 12.9 mph /  20.8 km/h 30.6 mph /  49.2 km/h 86 % 0.0 in /  0 mm
22:45 1.1 °F /  -17.2 °C -1.1 °F /  -18.4 °C 1006.7 in /  34086.9 hPa SSW 11.3 mph /  18.2 km/h 30.6 mph /  49.2 km/h 85 % 0.0 in /  0 mm
23:00 1.0 °F /  -17.2 °C -1.4 °F /  -18.6 °C 1007.0 in /  34097 hPa SSW 16.1 mph /  25.9 km/h 38.6 mph /  62.1 km/h 84 % 0.0 in /  0 mm
23:15 0.8 °F /  -17.3 °C -1.8 °F /  -18.8 °C 1007.0 in /  34097 hPa SSW 14.5 mph /  23.3 km/h 30.6 mph /  49.2 km/h 83 % 0.0 in /  0 mm
23:30 0.7 °F /  -17.4 °C -2.1 °F /  -18.9 °C 1007.0 in /  34097 hPa SSW 16.1 mph /  25.9 km/h 45.1 mph /  72.6 km/h 82 % 0.0 in /  0 mm
23:45 0.4 °F /  -17.6 °C -2.3 °F /  -19.1 °C 1007.3 in /  34107.2 hPa SSW 14.5 mph /  23.3 km/h 29.0 mph /  46.7 km/h 82 % 0.0 in /  0 mm
Esan sääasema
Terveisin Weather Underground - 2.75 mb

Alkuperäinen skripti  Jim McMurry - jmcmurry@mwt.net Sovitettu myös templatelle  Wim van der Kuil - Leuven-Template.eu

Laitteet joita käytämme:

Sääasema
Davis VP2

Sääasemaohjelma
Cumulus

Sääaseman tietokone
Asus EeePC

Palveluntarjoaja
Suncomet

Davis VP2

Cumulus

Asus EeePC

Suncomet